Accueil
METAR-TAF:

METAR-TAF

Aéroports :

Aéroport de Grenade-Federico García Lorca

Grenade, Espagne

latitude: 37-11N, longitude: 003-47W, altitude: 567 m

Observation

Le bulletin a été fait il y a 43 minutes, à 18:30 UTC
Vent 14 kt de sud
Température 29°C
Humidité 37%
Pression 1017 hPa
Visibilité 10 km ou plus
Quelques nuages à une hauteur de 5000 ft

METAR: LEGR 241830Z 17014KT 9999 FEW050 29/13 Q1017

Heure: 21:13 (19:13 UTC)

Prévision

Le bulletin a été fait il y a 2 heures et 13 minutes, à 17:00 UTC
Prévision valable du 24 à 18 UTC au 25 à 18 UTC
Vent 3 kt de direction variable
Visibilité 10 km ou plus
pas de nuages en-dessous de 1500 mètres et pas de cumulonimbus.
Temporairement
du 24 à 18 UTC au 24 à 20 UTC
Vent 10 kt de sud
Temporairement
du 25 à 15 UTC au 25 à 18 UTC
Vent 10 kt de sud/sud-est

TAF: LEGR 241700Z 2418/2518 VRB03KT CAVOK TX36/2515Z TN16/2505Z TEMPO 2418/2420 19010KT TEMPO 2515/2518 16010KT

Observations et prévisions météorologiques de plus de 4000 aéroports (messages METAR et TAF).

Les stations disponibles sont représentées par des disques jaunes et rouges sur la carte.

Passer la souris dessus pour voir le nom de la station.

Cliquer dessus pour voir les observations et prévisions météorologiques.

Pour changer de carte: cliquez sur les boutons verts avec une croix noire pour zoomer, sur le bouton vert avec un tiret pour effectuer un zoom arrière, ou sur les flèches vertes pour les cartes adjacentes.


METAR-TAF: